Airfield :
LOGIN :

Register | Disclaimer

   EN    FR    IT 

 










Legend :    VFR   Marginal VFR   IFR   Intensive IFR   Very Intensive IFR
Visi :
Ceiling :
>= 8 km
>= 3000ft
5 to 8 km
1000 to 3000 ft
1500m to 5 km
500 to 1000 ft
800 to 1500m
200 to 500 ft
< 800m
< 200 ft
Symbols :   Thunderstorms  Fog  Heavy snow  Heavy precipitations  Wind > 20 kt
SIGMETs :     Misc.  Thunderstorms  Icing  Turbulence  Mountain Waves  Volcanic Ashes







- Airport Elevation : 1674 ft
- IATA code : BRN


LSZB - Bern Belp

CURRENT METAR :
  • 141450Z 16008KT 5000 RA SCT018 OVC033 03/02 Q1003 NOSIG

EXPIRED METARs :
  • 141420Z 16005KT 130V200 6000 RA OVC015 03/02 Q1004 NOSIG
  • 141350Z 16005KT 9999 -RA BKN024 OVC033 04/02 Q1004 NOSIG
  • 141320Z 15005KT 9999 -RA OVC015 04/02 Q1005 NOSIG
  • 141250Z VRB05KT 5000 RA OVC015 04/02 Q1005 TEMPO 4500 SHRA SQ
  • 141220Z 23006KT 190V270 6000 -RA FEW015 BKN030 05/02 Q1006 TEMPO 4500 SHRA SQ

TAF TAF LSZB
Valid from the 14 at 15:00 until the 15 at 00:00 UTC


141425Z 1415/1424 16005KT 9999 -RA BKN025 OVC030
TEMPO 1416/1424 22012G25KT SHRA
PROB30
TEMPO 1419/1424 2500 SHRASN BKN013
ATIS : +41 22 417 40 76
No reported NOTAMs for that airfield.



MET'MAP, your aeronautical weather chart ! - Copyright ORBIFLY December 2007 - Disclaimer

ORBIFLY MET'MAP TEAM :

Programming & Development : Alexandra Zaïnal
Concept & Development : Baudouin d'Aumeries
Co-Development & Prog : Marc-Olivier Méhu
Technical & hardware support : Manuel Goepfert

Contact : metmap@orbifly.com




SOURCES & CREDITS :

   NOAA